Time;durP1;ratioP1;P1;durP2;ratioP2;P2;SDS_P1;SDS_P2;PMS_P1;PMS_P2;Temp;Humidity;BMP_temperature;BMP_pressure;BME280_temperature;BME280_humidity;BME280_pressure;Samples;Min_cycle;Max_cycle;Signal;HPM_P1;HPM_P2
2021/04/19 00:02:09;;;;;;;17.92;14.20;;;;;;;;;;6086257;29;20148;-71
2021/04/19 00:05:13;;;;;;;20.42;15.00;;;;;;;;;;6088436;29;20453;-71
2021/04/19 00:08:15;;;;;;;20.50;15.27;;;;;;;;;;6096940;29;20168;-71
2021/04/19 00:11:16;;;;;;;18.92;14.57;;;;;;;;;;6097641;29;20519;-71
2021/04/19 00:14:17;;;;;;;18.63;14.85;;;;;;;;;;6089741;29;20083;-73
2021/04/19 00:17:18;;;;;;;17.33;13.65;;;;;;;;;;6091994;29;20120;-72
2021/04/19 00:20:20;;;;;;;18.25;14.27;;;;;;;;;;6090098;29;20156;-72
2021/04/19 00:23:22;;;;;;;20.25;14.05;;;;;;;;;;6091562;29;20092;-72
2021/04/19 00:26:23;;;;;;;19.20;14.70;;;;;;;;;;6092931;29;20084;-71
2021/04/19 00:29:24;;;;;;;19.77;15.38;;;;;;;;;;6091788;29;20180;-72
2021/04/19 00:32:25;;;;;;;18.55;14.68;;;;;;;;;;6092587;29;20071;-71
2021/04/19 00:35:26;;;;;;;21.10;14.90;;;;;;;;;;6086911;29;20060;-72
2021/04/19 00:38:28;;;;;;;19.25;14.27;;;;;;;;;;6088243;29;20131;-71
2021/04/19 00:41:29;;;;;;;17.42;14.35;;;;;;;;;;6092676;29;20600;-72
2021/04/19 00:44:31;;;;;;;17.67;14.45;;;;;;;;;;6087828;29;20151;-71
2021/04/19 00:47:32;;;;;;;18.83;14.98;;;;;;;;;;6093375;29;20142;-71
2021/04/19 00:50:34;;;;;;;19.05;15.63;;;;;;;;;;6084084;29;20554;-71
2021/04/19 00:53:36;;;;;;;20.73;15.73;;;;;;;;;;6091663;29;20058;-71
2021/04/19 00:56:37;;;;;;;22.63;15.85;;;;;;;;;;6094170;29;20516;-71
2021/04/19 00:59:39;;;;;;;19.67;15.40;;;;;;;;;;6089826;29;20080;-71
2021/04/19 01:05:51;;;;;;;20.88;15.15;;;;;;;;;;6183194;23;20039;-71
2021/04/19 01:08:53;;;;;;;17.98;15.35;;;;;;;;;;6092658;29;20093;-71
2021/04/19 01:11:54;;;;;;;19.35;15.90;;;;;;;;;;6094030;29;20071;-72
2021/04/19 01:14:56;;;;;;;21.08;16.38;;;;;;;;;;6086635;29;20139;-71
2021/04/19 01:17:57;;;;;;;21.58;16.83;;;;;;;;;;6090815;29;20048;-71
2021/04/19 01:21:00;;;;;;;20.58;16.05;;;;;;;;;;6089210;29;20128;-72
2021/04/19 01:24:02;;;;;;;22.13;16.45;;;;;;;;;;6089664;29;20631;-72
2021/04/19 01:27:04;;;;;;;20.67;17.27;;;;;;;;;;6093072;29;20215;-73
2021/04/19 01:30:07;;;;;;;20.27;16.27;;;;;;;;;;6094907;29;20059;-72
2021/04/19 01:33:09;;;;;;;21.30;16.58;;;;;;;;;;6093287;29;20072;-71
2021/04/19 01:36:11;;;;;;;21.52;17.27;;;;;;;;;;6090614;29;20048;-71
2021/04/19 01:39:16;;;;;;;18.92;16.40;;;;;;;;;;6097415;29;20044;-71
2021/04/19 01:42:57;;;;;;;20.98;16.63;;;;;;;;;;6090834;29;20048;-72
2021/04/19 01:46:07;;;;;;;20.67;16.38;;;;;;;;;;6054752;29;20065;-70
2021/04/19 01:49:20;;;;;;;21.75;17.05;;;;;;;;;;6067650;29;20072;-71
2021/04/19 01:52:23;;;;;;;22.05;17.88;;;;;;;;;;6086300;29;20059;-71
2021/04/19 01:55:27;;;;;;;22.20;17.55;;;;;;;;;;6089547;29;20059;-71
2021/04/19 01:58:30;;;;;;;22.05;18.20;;;;;;;;;;6092944;29;20044;-71
2021/04/19 02:01:32;;;;;;;22.20;17.20;;;;;;;;;;6092787;29;20056;-71
2021/04/19 02:04:40;;;;;;;24.70;17.40;;;;;;;;;;6073595;29;20167;-72
2021/04/19 02:07:50;;;;;;;22.30;17.15;;;;;;;;;;6070858;29;20064;-70
2021/04/19 02:10:58;;;;;;;20.83;17.63;;;;;;;;;;6068195;29;20836;-72
2021/04/19 02:14:04;;;;;;;21.98;17.48;;;;;;;;;;6072680;29;20139;-70
2021/04/19 02:17:11;;;;;;;25.80;18.08;;;;;;;;;;6072068;29;20140;-70
2021/04/19 02:20:15;;;;;;;21.42;17.60;;;;;;;;;;6076360;29;20069;-71
2021/04/19 02:23:23;;;;;;;23.85;18.80;;;;;;;;;;6075388;29;20049;-70
2021/04/19 02:26:27;;;;;;;26.05;18.95;;;;;;;;;;6068507;29;20064;-70
2021/04/19 02:29:34;;;;;;;22.08;18.30;;;;;;;;;;6072497;29;20143;-69
2021/04/19 02:32:37;;;;;;;22.45;18.30;;;;;;;;;;6064996;29;20081;-70
2021/04/19 02:35:42;;;;;;;24.20;18.88;;;;;;;;;;6073497;29;20090;-71
2021/04/19 02:38:49;;;;;;;25.08;18.85;;;;;;;;;;6075872;29;20131;-72
2021/04/19 02:41:52;;;;;;;24.25;19.38;;;;;;;;;;6073750;29;20048;-71
2021/04/19 02:44:54;;;;;;;25.25;19.35;;;;;;;;;;6073566;29;20163;-71
2021/04/19 02:47:55;;;;;;;24.27;18.67;;;;;;;;;;6067217;29;20916;-71
2021/04/19 02:50:57;;;;;;;23.58;19.20;;;;;;;;;;6073638;29;20072;-71
2021/04/19 02:54:01;;;;;;;22.70;19.00;;;;;;;;;;6084195;29;20044;-73
2021/04/19 02:57:02;;;;;;;24.13;19.55;;;;;;;;;;6074860;29;20465;-71
2021/04/19 03:00:05;;;;;;;24.83;19.52;;;;;;;;;;6073530;29;20080;-70
2021/04/19 03:03:09;;;;;;;24.58;19.33;;;;;;;;;;6080641;29;20112;-71
2021/04/19 03:06:10;;;;;;;23.90;18.58;;;;;;;;;;6077262;29;20120;-72
2021/04/19 03:09:15;;;;;;;24.98;20.08;;;;;;;;;;6079847;29;20475;-71
2021/04/19 03:12:17;;;;;;;26.55;19.65;;;;;;;;;;6080852;29;20387;-71
2021/04/19 03:15:22;;;;;;;25.77;19.70;;;;;;;;;;6081017;29;20472;-73
2021/04/19 03:18:24;;;;;;;25.77;20.08;;;;;;;;;;6074677;29;20624;-70
2021/04/19 03:21:26;;;;;;;25.02;20.23;;;;;;;;;;6073108;29;20120;-70
2021/04/19 03:24:29;;;;;;;25.77;20.15;;;;;;;;;;6067251;29;20069;-74
2021/04/19 03:27:31;;;;;;;26.05;20.38;;;;;;;;;;6073011;29;20116;-71
2021/04/19 03:30:32;;;;;;;28.67;21.17;;;;;;;;;;6074001;29;20500;-71
2021/04/19 03:33:36;;;;;;;26.75;19.75;;;;;;;;;;6069647;29;20061;-72
2021/04/19 03:36:38;;;;;;;25.92;20.40;;;;;;;;;;6061199;29;20068;-72
2021/04/19 03:39:41;;;;;;;25.88;19.95;;;;;;;;;;6066234;29;20143;-72
2021/04/19 03:42:43;;;;;;;25.60;19.88;;;;;;;;;;6071643;29;20176;-72
2021/04/19 03:45:45;;;;;;;25.85;19.17;;;;;;;;;;6058249;29;20843;-70
2021/04/19 03:48:50;;;;;;;26.73;20.45;;;;;;;;;;6073694;29;20087;-71
2021/04/19 03:51:53;;;;;;;25.60;19.58;;;;;;;;;;6072349;29;20087;-70
2021/04/19 03:54:55;;;;;;;24.70;19.65;;;;;;;;;;6074175;29;20135;-70
2021/04/19 03:57:57;;;;;;;25.08;19.63;;;;;;;;;;6058270;29;20140;-70
2021/04/19 04:01:00;;;;;;;24.63;19.45;;;;;;;;;;6076050;29;20076;-70
2021/04/19 04:04:01;;;;;;;25.33;18.95;;;;;;;;;;6063661;29;20091;-69
2021/04/19 04:07:03;;;;;;;24.38;18.80;;;;;;;;;;6060629;29;20139;-70
2021/04/19 04:10:07;;;;;;;22.83;18.58;;;;;;;;;;6059376;29;20061;-72
2021/04/19 04:13:08;;;;;;;20.65;16.60;;;;;;;;;;6060044;29;20131;-70
2021/04/19 04:16:09;;;;;;;22.02;16.42;;;;;;;;;;6059077;29;20163;-70
2021/04/19 04:19:11;;;;;;;20.63;16.27;;;;;;;;;;6061924;29;20075;-69
2021/04/19 04:22:12;;;;;;;22.80;16.63;;;;;;;;;;6064599;29;20500;-69
2021/04/19 04:25:15;;;;;;;18.70;15.20;;;;;;;;;;6074039;29;20190;-70
2021/04/19 04:28:16;;;;;;;18.43;15.40;;;;;;;;;;6071796;29;20135;-70
2021/04/19 04:31:17;;;;;;;19.77;14.20;;;;;;;;;;6075572;29;20045;-70
2021/04/19 04:34:18;;;;;;;16.88;13.65;;;;;;;;;;6062347;29;20172;-70
2021/04/19 04:37:19;;;;;;;18.60;13.95;;;;;;;;;;6061525;29;20136;-71
2021/04/19 04:40:21;;;;;;;17.20;14.18;;;;;;;;;;6075453;29;20120;-70
2021/04/19 04:43:26;;;;;;;18.02;13.85;;;;;;;;;;6068617;29;20117;-70
2021/04/19 04:46:27;;;;;;;;;;;;;;;;;;6062100;29;20131;-70
2021/04/19 04:49:34;;;;;;;19.42;13.63;;;;;;;;;;6071662;29;20394;-70
2021/04/19 04:52:39;;;;;;;15.82;12.63;;;;;;;;;;6067865;29;20136;-71
2021/04/19 04:55:41;;;;;;;18.42;13.57;;;;;;;;;;6077328;29;20060;-70
2021/04/19 04:58:43;;;;;;;16.05;13.23;;;;;;;;;;6076797;29;20048;-70
2021/04/19 05:01:44;;;;;;;16.17;13.55;;;;;;;;;;6064719;29;20067;-70
2021/04/19 05:04:46;;;;;;;17.67;13.10;;;;;;;;;;6059333;29;20636;-71
2021/04/19 05:07:47;;;;;;;19.25;13.98;;;;;;;;;;6067034;29;20616;-73
2021/04/19 05:10:50;;;;;;;17.70;13.75;;;;;;;;;;6073970;29;20076;-71
2021/04/19 05:13:51;;;;;;;22.40;14.25;;;;;;;;;;6068928;29;20136;-70
2021/04/19 05:16:52;;;;;;;20.75;13.20;;;;;;;;;;6062841;29;20139;-70
2021/04/19 05:19:53;;;;;;;19.35;13.68;;;;;;;;;;6061798;29;20045;-70
2021/04/19 05:22:54;;;;;;;16.58;12.95;;;;;;;;;;6061385;29;20164;-70
2021/04/19 05:25:56;;;;;;;18.63;13.55;;;;;;;;;;6061994;29;20072;-69
2021/04/19 05:28:57;;;;;;;20.35;14.40;;;;;;;;;;6068638;29;20048;-73
2021/04/19 05:31:58;;;;;;;18.70;13.65;;;;;;;;;;6071613;29;20151;-71
2021/04/19 05:35:01;;;;;;;21.67;14.85;;;;;;;;;;6061547;29;20144;-71
2021/04/19 05:38:04;;;;;;;17.88;14.27;;;;;;;;;;6063051;29;20076;-71
2021/04/19 05:41:06;;;;;;;18.77;14.40;;;;;;;;;;6061101;29;20132;-72
2021/04/19 05:44:08;;;;;;;22.55;14.27;;;;;;;;;;6063642;29;20094;-72
2021/04/19 05:47:10;;;;;;;25.90;15.10;;;;;;;;;;6079788;29;20065;-71
2021/04/19 05:50:12;;;;;;;25.92;15.68;;;;;;;;;;6070510;29;20124;-72
2021/04/19 05:53:13;;;;;;;21.48;15.32;;;;;;;;;;6058839;29;20139;-70
2021/04/19 05:56:23;;;;;;;19.75;15.25;;;;;;;;;;6058145;29;20131;-74
2021/04/19 05:59:30;;;;;;;19.30;14.18;;;;;;;;;;6058992;29;20549;-72
2021/04/19 06:02:39;;;;;;;20.83;14.32;;;;;;;;;;6057518;29;20188;-72
2021/04/19 06:05:41;;;;;;;18.63;15.15;;;;;;;;;;6052101;29;20684;-72
2021/04/19 06:08:44;;;;;;;20.30;13.88;;;;;;;;;;6056490;29;20056;-72
2021/04/19 06:11:48;;;;;;;25.63;13.93;;;;;;;;;;6053790;29;20049;-72
2021/04/19 06:14:51;;;;;;;19.85;14.10;;;;;;;;;;6065246;29;20144;-71
2021/04/19 06:17:53;;;;;;;18.35;12.98;;;;;;;;;;6066281;29;20197;-71
2021/04/19 06:20:55;;;;;;;17.48;13.68;;;;;;;;;;6061673;29;20160;-72
2021/04/19 06:23:57;;;;;;;18.77;13.63;;;;;;;;;;6063636;29;20597;-72
2021/04/19 06:26:59;;;;;;;16.55;12.75;;;;;;;;;;6054905;29;20072;-72
2021/04/19 06:30:12;;;;;;;14.40;12.05;;;;;;;;;;6055915;29;20092;-72
2021/04/19 06:33:15;;;;;;;16.40;12.48;;;;;;;;;;6060759;29;20063;-70
2021/04/19 06:36:16;;;;;;;20.23;12.77;;;;;;;;;;6062302;29;20053;-72
2021/04/19 06:39:19;;;;;;;19.80;13.18;;;;;;;;;;6065981;29;20184;-72
2021/04/19 06:42:21;;;;;;;23.55;14.10;;;;;;;;;;6058094;29;20051;-72
2021/04/19 06:45:22;;;;;;;16.75;12.68;;;;;;;;;;6068489;29;20720;-70
2021/04/19 06:48:23;;;;;;;20.80;13.90;;;;;;;;;;6068860;29;20045;-71
2021/04/19 06:51:24;;;;;;;20.63;13.73;;;;;;;;;;6068396;29;20051;-71
2021/04/19 06:54:25;;;;;;;17.90;14.07;;;;;;;;;;6073581;29;20082;-70
2021/04/19 06:57:29;;;;;;;22.08;14.20;;;;;;;;;;6064141;29;20057;-70
2021/04/19 07:00:31;;;;;;;24.48;13.57;;;;;;;;;;6058681;29;20074;-70
2021/04/19 07:03:32;;;;;;;25.05;15.15;;;;;;;;;;6058435;29;20459;-71
2021/04/19 07:06:36;;;;;;;18.08;14.63;;;;;;;;;;6063907;29;20476;-70
2021/04/19 07:09:40;;;;;;;20.03;14.77;;;;;;;;;;6063551;29;20061;-73
2021/04/19 07:12:44;;;;;;;19.08;15.35;;;;;;;;;;6065131;29;20514;-72
2021/04/19 07:15:46;;;;;;;;;;;;;;;;;;6073865;29;20053;-78
2021/04/19 07:18:47;;;;;;;20.52;15.63;;;;;;;;;;6073305;29;19928;-72
2021/04/19 07:21:48;;;;;;;25.13;16.75;;;;;;;;;;6071995;29;20045;-72
2021/04/19 07:24:49;;;;;;;22.10;16.70;;;;;;;;;;6068392;29;20115;-72
2021/04/19 07:27:51;;;;;;;21.33;16.42;;;;;;;;;;6065356;29;20415;-72
2021/04/19 07:30:58;;;;;;;21.70;16.90;;;;;;;;;;6067278;29;20041;-72
2021/04/19 07:34:14;;;;;;;21.08;16.00;;;;;;;;;;6064091;29;20072;-73
2021/04/19 07:37:16;;;;;;;23.23;16.35;;;;;;;;;;6073449;29;20388;-70
2021/04/19 07:40:28;;;;;;;20.27;15.80;;;;;;;;;;6071670;29;20052;-71
2021/04/19 07:43:36;;;;;;;22.15;14.85;;;;;;;;;;6076761;29;20072;-71
2021/04/19 07:46:37;;;;;;;23.20;15.27;;;;;;;;;;6078146;29;20044;-71
2021/04/19 07:49:38;;;;;;;23.27;15.23;;;;;;;;;;6065172;29;20060;-71
2021/04/19 07:52:55;;;;;;;19.58;15.52;;;;;;;;;;6060540;29;20059;-71
2021/04/19 07:55:56;;;;;;;18.30;15.10;;;;;;;;;;6060272;29;20168;-72
2021/04/19 07:58:58;;;;;;;19.48;14.57;;;;;;;;;;6064228;29;21083;-71
2021/04/19 08:02:00;;;;;;;18.80;14.98;;;;;;;;;;6062766;29;20044;-71
2021/04/19 08:05:04;;;;;;;18.67;14.05;;;;;;;;;;6064461;29;20060;-69
2021/04/19 08:08:07;;;;;;;16.40;14.00;;;;;;;;;;6064634;29;20655;-69
2021/04/19 08:11:09;;;;;;;19.42;14.90;;;;;;;;;;6072718;29;20383;-70
2021/04/19 08:14:11;;;;;;;17.33;14.60;;;;;;;;;;6071651;29;20163;-72
2021/04/19 08:17:12;;;;;;;22.85;15.40;;;;;;;;;;6064321;29;20049;-70
2021/04/19 08:20:15;;;;;;;21.02;14.32;;;;;;;;;;6064376;29;20157;-72
2021/04/19 08:23:18;;;;;;;16.10;13.88;;;;;;;;;;6064877;29;20056;-71
2021/04/19 08:26:19;;;;;;;18.92;16.02;;;;;;;;;;6067086;29;20040;-70
2021/04/19 08:29:39;;;;;;;18.98;15.45;;;;;;;;;;6072281;29;20078;-71
2021/04/19 08:32:40;;;;;;;18.02;15.23;;;;;;;;;;6070710;29;20059;-70
2021/04/19 08:35:42;;;;;;;17.95;15.27;;;;;;;;;;6062757;29;20052;-74
2021/04/19 08:38:43;;;;;;;18.80;16.58;;;;;;;;;;6060617;29;20068;-71
2021/04/19 08:41:44;;;;;;;19.33;15.88;;;;;;;;;;6064662;29;20106;-71
2021/04/19 08:44:47;;;;;;;17.88;14.80;;;;;;;;;;6069026;29;20127;-70
2021/04/19 08:47:48;;;;;;;18.58;15.18;;;;;;;;;;6066776;29;20052;-72
2021/04/19 08:50:52;;;;;;;23.40;16.77;;;;;;;;;;6072324;29;20095;-71
2021/04/19 08:53:53;;;;;;;25.88;16.05;;;;;;;;;;6063568;29;20053;-72
2021/04/19 08:56:54;;;;;;;20.27;14.32;;;;;;;;;;6074536;29;20040;-70
2021/04/19 08:59:58;;;;;;;18.25;14.80;;;;;;;;;;6063950;29;20594;-71
2021/04/19 09:02:59;;;;;;;;;;;;;;;;;;6060054;29;20061;-75
2021/04/19 09:06:00;;;;;;;17.08;15.27;;;;;;;;;;6056528;29;19953;-76
2021/04/19 09:09:01;;;;;;;18.15;15.80;;;;;;;;;;6064490;29;20052;-72
2021/04/19 09:12:23;;;;;;;16.10;14.23;;;;;;;;;;6063532;29;20055;-71
2021/04/19 09:15:29;;;;;;;17.85;13.85;;;;;;;;;;6072973;29;20488;-71
2021/04/19 09:18:30;;;;;;;17.55;14.82;;;;;;;;;;6067503;29;20415;-71
2021/04/19 09:21:39;;;;;;;16.95;14.55;;;;;;;;;;6059898;29;20056;-71
2021/04/19 09:24:59;;;;;;;19.27;13.82;;;;;;;;;;6033687;29;20552;-71
2021/04/19 09:28:00;;;;;;;17.45;14.25;;;;;;;;;;6060785;29;20056;-74
2021/04/19 09:31:02;;;;;;;15.75;12.57;;;;;;;;;;6072780;29;20502;-71
2021/04/19 09:34:11;;;;;;;17.40;13.23;;;;;;;;;;6067886;29;20136;-71
2021/04/19 09:37:14;;;;;;;18.65;12.93;;;;;;;;;;6062513;29;20136;-71
2021/04/19 09:40:16;;;;;;;15.45;13.63;;;;;;;;;;6062946;29;24461;-74
2021/04/19 09:43:30;;;;;;;15.65;12.65;;;;;;;;;;6059906;29;20583;-70
2021/04/19 09:46:32;;;;;;;16.70;14.95;;;;;;;;;;6067401;29;20045;-71
2021/04/19 09:49:34;;;;;;;15.93;13.25;;;;;;;;;;6064805;29;20141;-70
2021/04/19 09:52:35;;;;;;;16.38;14.07;;;;;;;;;;6068826;29;20109;-71
2021/04/19 09:55:42;;;;;;;20.77;14.15;;;;;;;;;;6064185;29;20157;-71
2021/04/19 09:58:43;;;;;;;15.65;13.68;;;;;;;;;;6057601;29;20559;-71
2021/04/19 10:01:47;;;;;;;16.05;14.35;;;;;;;;;;6060820;29;20070;-72
2021/04/19 10:04:49;;;;;;;18.52;14.75;;;;;;;;;;6063957;29;20064;-71
2021/04/19 10:07:51;;;;;;;14.80;13.25;;;;;;;;;;6071760;29;20062;-71
2021/04/19 10:10:53;;;;;;;13.97;12.50;;;;;;;;;;6073443;29;20064;-71
2021/04/19 10:13:56;;;;;;;59.60;13.32;;;;;;;;;;6072551;29;20479;-72
2021/04/19 10:16:57;;;;;;;20.30;11.90;;;;;;;;;;6073035;29;20139;-75
2021/04/19 10:20:14;;;;;;;18.42;12.55;;;;;;;;;;6072530;29;20436;-72
2021/04/19 10:23:15;;;;;;;16.88;12.80;;;;;;;;;;6058030;29;20044;-72
2021/04/19 10:26:16;;;;;;;14.13;12.75;;;;;;;;;;6057902;29;20064;-75
2021/04/19 10:29:18;;;;;;;22.48;14.13;;;;;;;;;;6065501;29;20128;-73
2021/04/19 10:32:30;;;;;;;14.73;13.27;;;;;;;;;;6061459;29;20521;-70
2021/04/19 10:35:32;;;;;;;14.88;13.27;;;;;;;;;;6064125;29;20048;-73
2021/04/19 10:38:33;;;;;;;14.52;12.80;;;;;;;;;;6067105;29;20217;-72
2021/04/19 10:41:36;;;;;;;19.40;14.98;;;;;;;;;;6068911;29;20623;-71
2021/04/19 10:44:38;;;;;;;15.68;13.98;;;;;;;;;;6062346;29;20057;-72
2021/04/19 10:47:40;;;;;;;16.33;14.65;;;;;;;;;;6065105;29;20072;-70
2021/04/19 10:50:41;;;;;;;16.65;13.20;;;;;;;;;;6061848;29;20067;-70
2021/04/19 10:53:43;;;;;;;15.90;14.30;;;;;;;;;;6058135;29;20064;-70
2021/04/19 10:56:44;;;;;;;22.52;14.73;;;;;;;;;;6056549;29;20056;-74
2021/04/19 10:59:45;;;;;;;18.90;14.27;;;;;;;;;;6065025;29;20104;-71
2021/04/19 11:02:47;;;;;;;16.20;13.90;;;;;;;;;;6065925;29;20100;-69
2021/04/19 11:05:48;;;;;;;28.70;14.27;;;;;;;;;;6060468;29;20053;-72
2021/04/19 11:08:57;;;;;;;15.07;12.60;;;;;;;;;;6071112;29;20510;-72
2021/04/19 11:12:07;;;;;;;49.53;15.00;;;;;;;;;;6074088;29;20148;-71
2021/04/19 11:15:09;;;;;;;29.52;12.82;;;;;;;;;;6072606;29;20415;-71
2021/04/19 11:18:19;;;;;;;19.75;12.88;;;;;;;;;;6074432;29;20079;-73
2021/04/19 11:21:30;;;;;;;30.20;13.60;;;;;;;;;;6075750;29;20202;-72
2021/04/19 11:24:36;;;;;;;36.15;14.32;;;;;;;;;;6071357;29;20072;-73
2021/04/19 11:27:37;;;;;;;16.13;12.88;;;;;;;;;;6076236;29;20117;-71
2021/04/19 11:30:38;;;;;;;70.18;16.48;;;;;;;;;;6072274;29;20057;-73
2021/04/19 11:33:40;;;;;;;20.27;13.50;;;;;;;;;;6072411;29;20098;-72
2021/04/19 11:36:43;;;;;;;33.72;15.63;;;;;;;;;;6071069;29;20108;-71
2021/04/19 11:39:44;;;;;;;14.20;11.75;;;;;;;;;;6071525;29;20072;-77
2021/04/19 11:42:45;;;;;;;18.40;11.98;;;;;;;;;;6073629;29;20219;-73
2021/04/19 11:45:47;;;;;;;24.15;12.90;;;;;;;;;;6073335;29;20041;-71
2021/04/19 11:48:51;;;;;;;14.73;13.23;;;;;;;;;;6073027;29;21177;-73
2021/04/19 11:51:52;;;;;;;17.52;12.35;;;;;;;;;;6073665;29;20143;-73
2021/04/19 11:54:53;;;;;;;16.83;13.48;;;;;;;;;;6072034;29;20060;-73
2021/04/19 11:57:54;;;;;;;15.32;12.43;;;;;;;;;;6069246;29;20584;-73
2021/04/19 12:00:55;;;;;;;17.77;13.27;;;;;;;;;;6063561;29;20044;-70
2021/04/19 12:03:57;;;;;;;15.23;12.40;;;;;;;;;;6062867;29;20504;-70
2021/04/19 12:06:58;;;;;;;16.83;13.35;;;;;;;;;;6065756;29;20055;-70
2021/04/19 12:10:00;;;;;;;15.30;12.88;;;;;;;;;;6069983;29;20048;-73
2021/04/19 12:13:01;;;;;;;15.23;12.50;;;;;;;;;;6067957;29;20455;-70
2021/04/19 12:16:03;;;;;;;15.18;12.32;;;;;;;;;;6066867;29;20044;-70
2021/04/19 12:19:05;;;;;;;15.93;13.05;;;;;;;;;;6067344;29;20049;-73
2021/04/19 12:22:07;;;;;;;14.95;12.65;;;;;;;;;;6069275;29;20484;-70
2021/04/19 12:25:08;;;;;;;18.65;13.02;;;;;;;;;;6070699;29;20052;-72
2021/04/19 12:28:09;;;;;;;15.38;12.80;;;;;;;;;;6071227;29;20061;-70
2021/04/19 12:31:10;;;;;;;16.70;13.32;;;;;;;;;;6070241;29;20131;-71
2021/04/19 12:34:12;;;;;;;13.32;11.45;;;;;;;;;;6069214;29;20698;-71
2021/04/19 12:37:13;;;;;;;13.80;11.25;;;;;;;;;;6071301;29;20045;-71
2021/04/19 12:40:15;;;;;;;13.45;11.65;;;;;;;;;;6066284;29;20132;-71
2021/04/19 12:43:16;;;;;;;16.15;12.63;;;;;;;;;;6066195;29;20148;-70
2021/04/19 12:46:17;;;;;;;17.73;13.57;;;;;;;;;;6070853;29;20048;-71
2021/04/19 12:49:21;;;;;;;15.27;13.35;;;;;;;;;;6073429;29;20692;-71
2021/04/19 12:52:22;;;;;;;16.30;12.57;;;;;;;;;;6076041;29;20518;-71
2021/04/19 12:55:23;;;;;;;15.70;13.70;;;;;;;;;;6071712;29;20063;-71
2021/04/19 12:58:24;;;;;;;18.23;13.82;;;;;;;;;;6068499;29;20132;-70
2021/04/19 13:01:25;;;;;;;15.55;13.35;;;;;;;;;;6071725;29;20049;-71
2021/04/19 13:04:27;;;;;;;15.50;13.18;;;;;;;;;;6066180;29;20082;-72
2021/04/19 13:07:28;;;;;;;18.35;14.80;;;;;;;;;;6068355;29;20071;-71
2021/04/19 13:10:29;;;;;;;18.17;14.30;;;;;;;;;;6062890;29;20404;-71
2021/04/19 13:13:30;;;;;;;17.02;13.20;;;;;;;;;;6058392;29;20072;-73
2021/04/19 13:16:31;;;;;;;15.50;13.30;;;;;;;;;;6056405;29;20056;-71
2021/04/19 13:19:33;;;;;;;17.30;12.98;;;;;;;;;;6066529;29;20044;-74
2021/04/19 13:22:34;;;;;;;17.42;14.05;;;;;;;;;;6064118;29;20084;-72
2021/04/19 13:25:36;;;;;;;17.60;13.57;;;;;;;;;;6050447;29;20056;-72
2021/04/19 13:28:37;;;;;;;14.63;12.98;;;;;;;;;;6064303;29;20044;-72
2021/04/19 13:31:38;;;;;;;17.42;13.43;;;;;;;;;;6064232;29;20135;-71
2021/04/19 13:34:40;;;;;;;14.73;13.02;;;;;;;;;;6056899;29;20059;-70
2021/04/19 13:37:41;;;;;;;14.63;12.57;;;;;;;;;;6059072;29;20049;-71
2021/04/19 13:40:42;;;;;;;15.68;13.68;;;;;;;;;;6058798;29;21053;-71
2021/04/19 13:43:43;;;;;;;17.65;14.20;;;;;;;;;;6059890;29;20112;-70
2021/04/19 13:46:45;;;;;;;17.58;13.75;;;;;;;;;;6067493;29;20472;-72
2021/04/19 13:49:47;;;;;;;16.23;13.98;;;;;;;;;;6066000;29;20059;-71
2021/04/19 13:52:48;;;;;;;17.08;14.95;;;;;;;;;;6068160;29;20147;-71
2021/04/19 13:55:49;;;;;;;19.75;14.05;;;;;;;;;;6067802;29;20712;-71
2021/04/19 13:58:50;;;;;;;17.65;14.65;;;;;;;;;;6069575;29;20056;-71
2021/04/19 14:01:52;;;;;;;17.13;14.55;;;;;;;;;;6068861;29;20045;-71
2021/04/19 14:04:54;;;;;;;16.25;14.52;;;;;;;;;;6066752;29;20075;-70
2021/04/19 14:07:55;;;;;;;16.95;14.57;;;;;;;;;;6067014;29;20143;-70
2021/04/19 14:10:56;;;;;;;15.73;14.05;;;;;;;;;;6059941;29;20057;-70
2021/04/19 14:13:57;;;;;;;15.98;13.07;;;;;;;;;;6057832;29;20052;-69
2021/04/19 14:16:58;;;;;;;16.30;13.90;;;;;;;;;;6060816;29;20121;-71
2021/04/19 14:20:00;;;;;;;14.45;12.90;;;;;;;;;;6059831;29;20059;-70
2021/04/19 14:23:01;;;;;;;17.90;12.52;;;;;;;;;;6064437;29;20140;-70
2021/04/19 14:26:06;;;;;;;14.48;11.80;;;;;;;;;;6056860;29;20424;-71
2021/04/19 14:29:07;;;;;;;14.80;12.35;;;;;;;;;;6066136;29;20131;-71
2021/04/19 14:32:08;;;;;;;15.50;12.32;;;;;;;;;;6060617;29;20073;-71
2021/04/19 14:35:11;;;;;;;14.32;12.70;;;;;;;;;;6062590;29;20118;-72
2021/04/19 14:38:12;;;;;;;13.93;11.68;;;;;;;;;;6059493;29;20137;-72
2021/04/19 14:41:13;;;;;;;12.52;10.55;;;;;;;;;;6065616;29;20053;-72
2021/04/19 14:44:15;;;;;;;14.82;12.05;;;;;;;;;;6060616;29;20060;-70
2021/04/19 14:47:16;;;;;;;15.55;12.70;;;;;;;;;;6070978;29;20057;-74
2021/04/19 14:50:18;;;;;;;18.70;12.40;;;;;;;;;;6056209;29;20180;-72
2021/04/19 14:53:19;;;;;;;16.17;13.23;;;;;;;;;;6056022;29;20082;-72
2021/04/19 14:56:20;;;;;;;14.00;12.40;;;;;;;;;;6053432;29;20361;-70
2021/04/19 14:59:22;;;;;;;14.23;12.18;;;;;;;;;;6057605;29;20052;-72
2021/04/19 15:02:23;;;;;;;14.85;12.10;;;;;;;;;;6057590;29;20432;-71
2021/04/19 15:05:25;;;;;;;17.15;11.32;;;;;;;;;;6057504;29;20065;-73
2021/04/19 15:08:26;;;;;;;14.63;11.77;;;;;;;;;;6057824;29;20091;-71
2021/04/19 15:11:27;;;;;;;13.55;11.02;;;;;;;;;;6058647;29;20057;-70
2021/04/19 15:14:28;;;;;;;12.82;10.55;;;;;;;;;;6064884;29;20055;-71
2021/04/19 15:17:29;;;;;;;12.55;10.40;;;;;;;;;;6073140;29;20452;-71
2021/04/19 15:20:31;;;;;;;15.82;10.23;;;;;;;;;;6069532;29;20057;-71
2021/04/19 15:23:32;;;;;;;15.02;10.80;;;;;;;;;;6068276;29;20053;-71
2021/04/19 15:26:33;;;;;;;15.93;10.48;;;;;;;;;;6072046;29;20064;-69
2021/04/19 15:29:35;;;;;;;15.95;10.57;;;;;;;;;;6071629;29;20082;-70
2021/04/19 15:32:36;;;;;;;14.88;9.85;;;;;;;;;;6072279;29;20435;-70
2021/04/19 15:35:38;;;;;;;15.60;10.63;;;;;;;;;;6067310;29;20055;-71
2021/04/19 15:38:40;;;;;;;13.18;10.27;;;;;;;;;;6045786;29;20052;-69
2021/04/19 15:41:41;;;;;;;14.45;9.85;;;;;;;;;;6072240;29;20072;-72
2021/04/19 15:44:43;;;;;;;17.38;10.15;;;;;;;;;;6072927;29;20128;-72
2021/04/19 15:47:44;;;;;;;13.80;9.80;;;;;;;;;;6069775;29;20052;-72
2021/04/19 15:50:46;;;;;;;13.32;10.35;;;;;;;;;;6070555;29;20049;-73
2021/04/19 15:53:47;;;;;;;11.77;9.63;;;;;;;;;;6069647;29;20463;-69
2021/04/19 15:56:48;;;;;;;14.18;9.73;;;;;;;;;;6061806;29;20409;-71
2021/04/19 15:59:49;;;;;;;12.60;9.43;;;;;;;;;;6060401;29;20052;-71
2021/04/19 16:02:50;;;;;;;12.15;10.50;;;;;;;;;;6062032;29;20055;-70
2021/04/19 16:05:52;;;;;;;10.95;9.50;;;;;;;;;;6063604;29;20053;-71
2021/04/19 16:08:53;;;;;;;14.93;10.30;;;;;;;;;;6067219;29;20100;-74
2021/04/19 16:11:54;;;;;;;17.65;10.57;;;;;;;;;;6064655;29;20076;-73
2021/04/19 16:14:55;;;;;;;16.20;11.32;;;;;;;;;;6060026;29;20356;-73
2021/04/19 16:17:56;;;;;;;13.40;10.70;;;;;;;;;;6058048;29;20059;-70
2021/04/19 16:20:58;;;;;;;14.10;10.75;;;;;;;;;;6072609;29;20131;-70
2021/04/19 16:23:59;;;;;;;12.32;10.68;;;;;;;;;;6065809;29;20072;-70
2021/04/19 16:27:01;;;;;;;13.80;10.95;;;;;;;;;;6074360;29;20610;-70
2021/04/19 16:30:03;;;;;;;14.02;9.55;;;;;;;;;;6073431;29;20093;-70
2021/04/19 16:33:04;;;;;;;13.50;10.18;;;;;;;;;;6066876;29;20588;-70
2021/04/19 16:36:07;;;;;;;14.82;9.73;;;;;;;;;;6061683;29;20093;-70
2021/04/19 16:39:08;;;;;;;12.07;9.15;;;;;;;;;;6065203;29;20122;-69
2021/04/19 16:42:09;;;;;;;16.23;9.38;;;;;;;;;;6072820;29;20536;-70
2021/04/19 16:45:11;;;;;;;13.75;9.30;;;;;;;;;;6057746;29;20600;-69
2021/04/19 16:48:13;;;;;;;12.43;9.63;;;;;;;;;;6061951;29;20044;-71
2021/04/19 16:51:15;;;;;;;13.55;9.20;;;;;;;;;;6065219;29;20451;-70
2021/04/19 16:54:16;;;;;;;12.23;9.80;;;;;;;;;;6066408;29;20060;-70
2021/04/19 16:57:18;;;;;;;11.88;9.68;;;;;;;;;;6064114;29;20139;-70
2021/04/19 17:00:19;;;;;;;14.02;9.77;;;;;;;;;;6070468;29;20075;-70
2021/04/19 17:03:20;;;;;;;18.00;9.73;;;;;;;;;;6069284;29;20135;-70
2021/04/19 17:06:22;;;;;;;18.52;9.82;;;;;;;;;;6066944;29;20148;-69
2021/04/19 17:09:23;;;;;;;12.73;9.27;;;;;;;;;;6059666;29;20203;-74
2021/04/19 17:12:24;;;;;;;13.02;9.63;;;;;;;;;;6058812;29;20489;-72
2021/04/19 17:15:26;;;;;;;15.07;10.02;;;;;;;;;;6061866;29;20638;-70
2021/04/19 17:18:27;;;;;;;14.43;10.15;;;;;;;;;;6059951;29;20123;-71
2021/04/19 17:21:29;;;;;;;17.02;11.75;;;;;;;;;;6061176;29;20048;-72
2021/04/19 17:24:30;;;;;;;16.23;11.65;;;;;;;;;;6063583;29;20151;-70
2021/04/19 17:27:31;;;;;;;14.98;10.88;;;;;;;;;;6065384;29;20070;-69
2021/04/19 17:30:32;;;;;;;15.38;11.48;;;;;;;;;;6063060;29;20087;-72
2021/04/19 17:33:33;;;;;;;15.32;11.77;;;;;;;;;;6056167;29;20069;-70
2021/04/19 17:36:36;;;;;;;22.20;11.57;;;;;;;;;;6061877;29;20060;-71
2021/04/19 17:39:37;;;;;;;15.02;11.27;;;;;;;;;;6056065;29;20060;-70
2021/04/19 17:42:38;;;;;;;17.05;11.70;;;;;;;;;;6056681;29;20415;-69
2021/04/19 17:45:39;;;;;;;17.27;11.95;;;;;;;;;;6055531;29;20139;-69
2021/04/19 17:48:42;;;;;;;16.98;11.20;;;;;;;;;;6058373;29;20059;-71